Time;durP1;ratioP1;P1;durP2;ratioP2;P2;SDS_P1;SDS_P2;PMS_P1;PMS_P2;Temp;Humidity;BMP_temperature;BMP_pressure;BME280_temperature;BME280_humidity;BME280_pressure;Samples;Min_cycle;Max_cycle;Signal;HPM_P1;HPM_P2
2023/12/10 00:01:18;;;;;;;33.90;5.82;;;9.80;99.90;;;;;;5022022;28;20192;-39
2023/12/10 00:03:44;;;;;;;32.65;5.90;;;9.80;99.90;;;;;;5022614;28;20199;-40
2023/12/10 00:06:10;;;;;;;38.05;5.90;;;9.80;99.90;;;;;;5022948;28;20984;-38
2023/12/10 00:08:36;;;;;;;33.38;5.85;;;9.80;99.90;;;;;;5022946;28;20227;-39
2023/12/10 00:11:02;;;;;;;32.70;5.65;;;9.80;99.90;;;;;;5023003;28;20189;-37
2023/12/10 00:13:28;;;;;;;28.35;4.97;;;9.80;99.90;;;;;;5022659;28;21206;-39
2023/12/10 00:15:54;;;;;;;34.97;5.00;;;9.80;99.90;;;;;;5022521;28;20207;-41
2023/12/10 00:18:20;;;;;;;32.38;5.30;;;9.80;99.90;;;;;;5022462;28;20192;-40
2023/12/10 00:20:46;;;;;;;38.65;5.65;;;9.80;99.90;;;;;;5022769;28;20664;-40
2023/12/10 00:23:12;;;;;;;35.17;4.95;;;9.80;99.90;;;;;;5022010;28;20206;-39
2023/12/10 00:25:39;;;;;;;30.25;5.80;;;9.80;99.90;;;;;;5021850;28;20198;-42
2023/12/10 00:28:05;;;;;;;36.85;5.32;;;9.80;99.90;;;;;;5020985;28;20196;-37
2023/12/10 00:30:31;;;;;;;35.42;5.88;;;9.80;99.90;;;;;;5022678;28;20293;-39
2023/12/10 00:32:56;;;;;;;30.52;5.25;;;9.80;99.90;;;;;;5022296;28;20292;-46
2023/12/10 00:35:22;;;;;;;36.75;6.03;;;9.80;99.90;;;;;;5017953;28;20176;-46
2023/12/10 00:37:48;;;;;;;33.55;5.88;;;9.80;99.90;;;;;;5022259;28;20195;-39
2023/12/10 00:40:15;;;;;;;38.90;5.45;;;9.80;99.90;;;;;;5022589;28;20191;-38
2023/12/10 00:42:43;;;;;;;35.88;5.38;;;9.80;99.90;;;;;;5022690;28;20191;-40
2023/12/10 00:45:09;;;;;;;34.97;5.93;;;9.80;99.90;;;;;;5037117;28;20192;-42
2023/12/10 00:47:36;;;;;;;26.50;4.95;;;9.70;99.90;;;;;;5022325;28;20188;-43
2023/12/10 00:50:03;;;;;;;31.25;5.47;;;9.70;99.90;;;;;;5021688;28;20274;-36
2023/12/10 00:52:29;;;;;;;32.05;5.38;;;9.70;99.90;;;;;;5021644;28;20214;-46
2023/12/10 00:54:55;;;;;;;25.00;4.95;;;9.70;99.90;;;;;;5021931;28;20192;-40
2023/12/10 00:57:21;;;;;;;32.95;5.78;;;9.70;99.90;;;;;;5022625;28;20302;-38
2023/12/10 00:59:47;;;;;;;34.22;5.50;;;9.70;99.90;;;;;;5021692;28;20194;-43
2023/12/10 01:02:13;;;;;;;36.38;5.03;;;9.70;99.90;;;;;;5021620;28;20636;-42
2023/12/10 01:04:39;;;;;;;27.30;4.57;;;9.70;99.90;;;;;;5019241;28;20195;-37
2023/12/10 01:07:07;;;;;;;26.45;4.50;;;9.70;99.90;;;;;;5022206;28;20195;-37
2023/12/10 01:09:35;;;;;;;30.63;5.28;;;9.70;99.90;;;;;;5036511;28;21160;-38
2023/12/10 01:12:03;;;;;;;28.75;5.07;;;9.70;99.90;;;;;;5020493;28;20223;-44
2023/12/10 01:14:29;;;;;;;22.75;4.75;;;9.70;99.90;;;;;;5020555;28;20184;-45
2023/12/10 01:16:55;;;;;;;27.10;5.03;;;9.70;99.90;;;;;;5021890;28;20246;-41
2023/12/10 01:19:22;;;;;;;33.38;5.05;;;9.60;99.90;;;;;;5022097;28;21194;-37
2023/12/10 01:21:49;;;;;;;26.27;4.40;;;9.60;99.90;;;;;;5021567;28;20212;-37
2023/12/10 01:24:19;;;;;;;29.63;5.13;;;9.50;99.90;;;;;;5019267;28;20202;-39
2023/12/10 01:26:45;;;;;;;29.25;4.72;;;9.50;99.90;;;;;;5022014;28;20196;-40
2023/12/10 01:29:10;;;;;;;28.55;5.03;;;9.40;99.90;;;;;;5020345;28;20191;-41
2023/12/10 01:31:36;;;;;;;24.70;4.85;;;9.30;99.90;;;;;;5020242;28;20303;-41
2023/12/10 01:34:03;;;;;;;30.23;5.00;;;9.40;99.90;;;;;;5021268;28;20758;-37
2023/12/10 01:36:29;;;;;;;23.42;4.50;;;9.30;99.90;;;;;;5020666;28;20180;-39
2023/12/10 01:38:56;;;;;;;28.65;4.55;;;9.30;99.90;;;;;;5022150;28;20550;-51
2023/12/10 01:41:23;;;;;;;28.15;4.88;;;9.20;99.90;;;;;;5021715;28;20192;-41
2023/12/10 01:43:49;;;;;;;27.23;4.72;;;9.20;99.90;;;;;;5019699;28;20222;-46
2023/12/10 01:46:16;;;;;;;32.17;5.22;;;9.20;99.90;;;;;;5021038;28;20180;-39
2023/12/10 01:48:44;;;;;;;30.40;5.32;;;9.20;99.90;;;;;;5021316;28;20195;-42
2023/12/10 01:51:10;;;;;;;29.90;4.97;;;9.20;99.90;;;;;;5021216;28;20211;-38
2023/12/10 01:53:38;;;;;;;33.05;5.03;;;9.10;99.90;;;;;;5020940;28;20223;-38
2023/12/10 01:56:08;;;;;;;32.95;5.13;;;9.10;99.90;;;;;;5019671;28;20758;-39
2023/12/10 01:58:36;;;;;;;28.60;4.75;;;9.10;99.90;;;;;;5021419;28;20266;-39
2023/12/10 02:01:05;;;;;;;28.00;4.60;;;9.10;99.90;;;;;;5051500;28;20672;-44
2023/12/10 02:03:32;;;;;;;36.65;5.47;;;9.10;99.90;;;;;;5018676;28;20723;-42
2023/12/10 02:05:59;;;;;;;28.38;4.93;;;9.10;99.90;;;;;;5021063;28;20871;-38
2023/12/10 02:08:24;;;;;;;25.85;4.28;;;9.10;99.90;;;;;;5020611;28;20231;-41
2023/12/10 02:10:50;;;;;;;33.88;4.70;;;9.10;99.90;;;;;;5020974;28;20577;-44
2023/12/10 02:13:17;;;;;;;32.13;5.60;;;9.10;99.90;;;;;;5019658;28;20698;-39
2023/12/10 02:15:43;;;;;;;34.10;5.07;;;9.00;99.90;;;;;;5020198;28;20180;-40
2023/12/10 02:18:09;;;;;;;28.50;4.97;;;9.00;99.90;;;;;;5020709;28;20187;-46
2023/12/10 02:20:35;;;;;;;31.92;5.28;;;9.00;99.90;;;;;;5021056;28;20214;-42
2023/12/10 02:23:09;;;;;;;28.58;4.93;;;9.00;99.90;;;;;;5019410;28;20654;-39
2023/12/10 02:25:37;;;;;;;40.03;5.20;;;9.00;99.90;;;;;;5020594;28;20188;-42
2023/12/10 02:28:04;;;;;;;27.30;4.57;;;9.00;99.90;;;;;;5020650;28;20196;-38
2023/12/10 02:30:30;;;;;;;32.92;4.93;;;8.90;99.90;;;;;;5021128;28;20190;-41
2023/12/10 02:32:57;;;;;;;29.23;4.75;;;8.90;99.90;;;;;;5019459;28;20224;-42
2023/12/10 02:35:23;;;;;;;22.40;4.63;;;8.90;99.90;;;;;;5020156;28;20214;-38
2023/12/10 02:37:49;;;;;;;24.20;4.55;;;9.00;99.90;;;;;;5019288;28;20192;-40
2023/12/10 02:40:18;;;;;;;32.38;4.68;;;9.00;99.90;;;;;;5020716;28;20198;-38
2023/12/10 02:42:48;;;;;;;29.05;4.95;;;9.00;99.90;;;;;;5020618;28;20664;-42
2023/12/10 02:45:14;;;;;;;23.98;4.68;;;8.90;99.90;;;;;;5020864;28;20191;-38
2023/12/10 02:47:41;;;;;;;27.35;4.97;;;8.90;99.90;;;;;;5051996;28;20295;-38
2023/12/10 02:50:07;;;;;;;25.80;4.68;;;8.90;99.90;;;;;;5020552;28;20718;-37
2023/12/10 02:52:37;;;;;;;27.45;4.70;;;8.90;99.90;;;;;;5051906;28;20216;-39
2023/12/10 02:55:04;;;;;;;26.67;5.22;;;8.90;99.90;;;;;;5018859;28;20179;-40
2023/12/10 02:57:30;;;;;;;24.77;4.63;;;9.00;99.90;;;;;;5020698;28;20223;-40
2023/12/10 02:59:56;;;;;;;31.88;4.57;;;9.00;99.90;;;;;;5020775;28;20180;-39
2023/12/10 03:02:22;;;;;;;26.45;4.40;;;8.90;99.90;;;;;;5022013;28;20198;-37
2023/12/10 03:04:48;;;;;;;24.63;4.68;;;8.90;99.90;;;;;;5024500;28;20202;-37
2023/12/10 03:07:14;;;;;;;27.95;4.72;;;8.90;99.90;;;;;;5024481;28;20184;-41
2023/12/10 03:09:39;;;;;;;30.33;4.40;;;8.90;99.90;;;;;;5023465;28;20223;-38
2023/12/10 03:12:06;;;;;;;26.00;4.47;;;8.90;99.90;;;;;;5023478;28;20215;-42
2023/12/10 03:14:32;;;;;;;23.98;3.95;;;8.90;99.90;;;;;;5023754;28;20645;-39
2023/12/10 03:16:57;;;;;;;24.70;4.43;;;8.90;99.90;;;;;;5023560;28;20196;-37
2023/12/10 03:19:23;;;;;;;23.52;4.28;;;8.90;99.90;;;;;;5024101;28;20234;-38
2023/12/10 03:21:50;;;;;;;16.75;3.13;;;8.90;99.90;;;;;;5024089;28;20210;-44
2023/12/10 03:24:16;;;;;;;29.02;4.07;;;8.80;99.90;;;;;;5022644;28;20195;-41
2023/12/10 03:26:41;;;;;;;23.30;4.15;;;8.80;99.90;;;;;;5023310;28;20204;-37
2023/12/10 03:29:07;;;;;;;23.52;3.60;;;8.80;99.90;;;;;;5055537;28;20547;-39
2023/12/10 03:31:33;;;;;;;29.75;4.43;;;8.80;99.90;;;;;;5023084;28;20188;-38
2023/12/10 03:33:59;;;;;;;20.63;3.85;;;8.80;99.90;;;;;;5023418;28;20219;-40
2023/12/10 03:36:25;;;;;;;29.38;5.03;;;8.80;99.90;;;;;;5023097;28;20764;-39
2023/12/10 03:38:51;;;;;;;16.90;3.40;;;8.70;99.90;;;;;;5024022;28;20192;-39
2023/12/10 03:41:17;;;;;;;21.08;4.05;;;8.70;99.90;;;;;;5023584;28;20180;-41
2023/12/10 03:43:43;;;;;;;24.48;4.35;;;8.70;99.90;;;;;;5023703;28;20640;-37
2023/12/10 03:46:09;;;;;;;22.52;3.75;;;8.70;99.90;;;;;;5023220;28;20196;-37
2023/12/10 03:48:35;;;;;;;25.23;3.58;;;8.70;99.90;;;;;;5023795;28;20184;-39
2023/12/10 03:51:00;;;;;;;21.33;3.75;;;8.70;99.90;;;;;;5024190;28;20577;-39
2023/12/10 03:53:26;;;;;;;13.93;3.03;;;8.70;99.90;;;;;;5021703;28;20320;-39
2023/12/10 03:55:52;;;;;;;19.92;3.60;;;8.60;99.90;;;;;;5023116;28;20614;-38
2023/12/10 03:58:18;;;;;;;12.60;3.00;;;8.60;99.90;;;;;;5022299;28;20209;-39
2023/12/10 04:00:44;;;;;;;14.60;2.70;;;8.60;99.90;;;;;;5024188;28;20722;-41
2023/12/10 04:03:10;;;;;;;9.27;2.53;;;8.60;99.90;;;;;;5023418;28;20192;-44
2023/12/10 04:05:36;;;;;;;14.43;2.15;;;8.60;99.90;;;;;;5021928;28;20290;-39
2023/12/10 04:08:02;;;;;;;14.35;2.22;;;8.60;99.90;;;;;;5021869;28;20202;-39
2023/12/10 04:10:29;;;;;;;14.05;2.58;;;8.60;99.90;;;;;;5022801;28;20234;-41
2023/12/10 04:12:55;;;;;;;13.60;2.22;;;8.60;99.90;;;;;;5020804;28;20223;-44
2023/12/10 04:15:21;;;;;;;9.57;2.00;;;8.50;99.90;;;;;;5022531;28;20263;-43
2023/12/10 04:17:48;;;;;;;11.23;2.30;;;8.60;99.90;;;;;;5022736;28;20206;-39
2023/12/10 04:20:13;;;;;;;7.68;1.90;;;8.60;99.90;;;;;;5023081;28;20181;-39
2023/12/10 04:22:39;;;;;;;5.88;1.88;;;8.60;99.90;;;;;;5055047;28;20198;-42
2023/12/10 04:25:06;;;;;;;6.80;1.70;;;8.60;99.90;;;;;;5053949;28;20190;-44
2023/12/10 04:27:31;;;;;;;8.75;1.88;;;8.60;99.90;;;;;;5022574;28;20195;-38
2023/12/10 04:29:57;;;;;;;14.13;2.00;;;8.60;99.90;;;;;;5022281;28;20192;-38
2023/12/10 04:32:23;;;;;;;10.13;2.22;;;8.60;99.90;;;;;;5022751;28;20687;-38
2023/12/10 04:34:50;;;;;;;8.65;2.45;;;8.60;99.90;;;;;;5021940;28;20195;-39
2023/12/10 04:37:16;;;;;;;9.75;2.10;;;8.70;99.90;;;;;;5004328;28;20206;-40
2023/12/10 04:39:42;;;;;;;9.15;2.00;;;8.70;99.90;;;;;;5022483;28;20632;-42
2023/12/10 04:42:07;;;;;;;8.07;1.98;;;8.70;99.90;;;;;;5021583;28;20192;-38
2023/12/10 04:44:33;;;;;;;11.43;2.30;;;8.80;99.90;;;;;;5023089;28;21262;-42
2023/12/10 04:46:59;;;;;;;11.13;2.50;;;8.80;99.90;;;;;;5021072;28;20191;-44
2023/12/10 04:49:25;;;;;;;12.18;3.13;;;8.80;99.90;;;;;;5021867;28;20204;-45
2023/12/10 04:51:51;;;;;;;13.68;2.58;;;8.80;99.90;;;;;;5022329;28;20220;-37
2023/12/10 04:54:17;;;;;;;9.80;2.55;;;8.80;99.90;;;;;;5021874;28;20212;-45
2023/12/10 04:56:43;;;;;;;13.30;2.83;;;8.90;99.90;;;;;;5022140;28;20270;-44
2023/12/10 04:59:09;;;;;;;19.63;3.28;;;8.90;99.90;;;;;;5053861;28;20559;-41
2023/12/10 05:01:35;;;;;;;11.80;2.70;;;8.90;99.90;;;;;;5022616;28;20230;-39
2023/12/10 05:04:01;;;;;;;8.82;2.50;;;8.90;99.90;;;;;;5021303;28;20179;-39
2023/12/10 05:06:27;;;;;;;17.35;3.00;;;9.00;99.90;;;;;;5022034;28;20214;-38
2023/12/10 05:08:52;;;;;;;15.52;2.70;;;8.90;99.90;;;;;;5053888;28;20275;-37
2023/12/10 05:11:18;;;;;;;17.00;3.17;;;8.90;99.90;;;;;;5021896;28;20223;-43
2023/12/10 05:13:44;;;;;;;12.20;2.42;;;8.90;99.90;;;;;;5020112;28;20211;-41
2023/12/10 05:16:10;;;;;;;14.30;2.65;;;9.00;99.90;;;;;;5020707;28;20241;-38
2023/12/10 05:18:36;;;;;;;14.50;4.05;;;9.00;99.90;;;;;;5020763;28;20203;-41
2023/12/10 05:21:02;;;;;;;13.73;3.67;;;9.00;99.90;;;;;;5021837;28;20188;-43
2023/12/10 05:23:28;;;;;;;14.68;4.78;;;8.90;99.90;;;;;;5021848;28;20192;-40
2023/12/10 05:25:54;;;;;;;14.27;3.50;;;8.90;99.90;;;;;;5021177;28;20211;-40
2023/12/10 05:28:20;;;;;;;12.38;2.90;;;8.90;99.90;;;;;;5036878;28;20199;-36
2023/12/10 05:30:46;;;;;;;13.50;2.90;;;8.90;99.90;;;;;;5053418;28;20199;-39
2023/12/10 05:33:12;;;;;;;13.73;2.90;;;8.90;99.90;;;;;;5020841;28;20215;-36
2023/12/10 05:35:38;;;;;;;10.85;2.58;;;8.90;99.90;;;;;;5020691;28;20541;-42
2023/12/10 05:38:04;;;;;;;13.23;2.28;;;8.90;99.90;;;;;;5021640;28;20179;-40
2023/12/10 05:40:30;;;;;;;9.57;2.33;;;8.90;99.90;;;;;;5021625;28;20203;-40
2023/12/10 05:42:56;;;;;;;12.85;2.53;;;8.90;99.90;;;;;;5021848;28;20179;-38
2023/12/10 05:45:22;;;;;;;14.27;2.50;;;8.90;99.90;;;;;;5020055;28;20296;-36
2023/12/10 05:47:48;;;;;;;12.75;2.22;;;8.90;99.90;;;;;;5019577;28;20195;-38
2023/12/10 05:50:14;;;;;;;11.43;2.10;;;8.80;99.90;;;;;;5021619;28;20210;-41
2023/12/10 05:52:40;;;;;;;9.18;1.80;;;8.80;99.90;;;;;;5020803;28;20580;-38
2023/12/10 05:55:07;;;;;;;11.35;2.28;;;8.80;99.90;;;;;;5021183;28;20188;-37
2023/12/10 05:57:32;;;;;;;8.07;2.30;;;8.80;99.90;;;;;;5020938;28;20215;-41
2023/12/10 05:59:58;;;;;;;10.02;2.80;;;8.80;99.90;;;;;;5021870;28;20542;-42
2023/12/10 06:02:24;;;;;;;14.93;3.22;;;8.80;99.90;;;;;;5020703;28;20615;-36
2023/12/10 06:04:50;;;;;;;11.35;3.35;;;8.80;99.90;;;;;;5020207;28;20771;-42
2023/12/10 06:07:17;;;;;;;12.27;3.28;;;8.80;99.90;;;;;;5020011;28;20192;-42
2023/12/10 06:09:43;;;;;;;14.60;3.47;;;8.80;99.90;;;;;;5021336;28;20747;-44
2023/12/10 06:12:09;;;;;;;13.60;3.60;;;8.80;99.90;;;;;;5020459;28;20217;-40
2023/12/10 06:14:35;;;;;;;12.57;3.60;;;8.80;99.90;;;;;;5020811;28;21409;-39
2023/12/10 06:17:01;;;;;;;12.30;3.50;;;8.90;99.90;;;;;;5020667;28;20250;-44
2023/12/10 06:19:27;;;;;;;17.35;5.25;;;8.90;99.90;;;;;;5020191;28;20612;-43
2023/12/10 06:21:53;;;;;;;12.55;3.97;;;8.90;99.90;;;;;;5020571;28;21734;-37
2023/12/10 06:24:18;;;;;;;19.55;4.20;;;8.90;99.90;;;;;;5020773;28;20644;-39
2023/12/10 06:26:44;;;;;;;18.48;4.90;;;8.90;99.90;;;;;;5021502;28;20192;-40
2023/12/10 06:29:10;;;;;;;20.75;4.90;;;9.00;99.90;;;;;;5052673;28;20256;-38
2023/12/10 06:31:36;;;;;;;20.33;4.78;;;9.00;99.90;;;;;;5020294;28;20203;-39
2023/12/10 06:34:02;;;;;;;22.25;4.20;;;9.00;99.90;;;;;;5020784;28;20184;-38
2023/12/10 06:36:28;;;;;;;10.77;2.60;;;9.00;99.90;;;;;;5021936;28;20204;-38
2023/12/10 06:38:54;;;;;;;22.25;3.88;;;9.10;99.90;;;;;;5024729;28;20187;-42
2023/12/10 06:41:20;;;;;;;27.23;3.60;;;9.10;99.90;;;;;;5023626;28;21138;-39
2023/12/10 06:43:46;;;;;;;28.55;4.53;;;9.10;99.90;;;;;;5024908;28;20307;-43
2023/12/10 06:46:13;;;;;;;22.13;3.03;;;9.20;99.90;;;;;;5023252;28;20203;-40
2023/12/10 06:48:39;;;;;;;23.80;3.35;;;9.20;99.90;;;;;;5023906;28;20218;-37
2023/12/10 06:51:05;;;;;;;21.95;3.30;;;9.30;99.90;;;;;;5023155;28;20224;-42
2023/12/10 06:53:32;;;;;;;26.25;4.18;;;9.30;99.90;;;;;;5024393;28;20211;-35
2023/12/10 06:55:58;;;;;;;25.85;3.90;;;9.30;99.90;;;;;;5023711;28;20184;-49
2023/12/10 06:58:24;;;;;;;16.23;3.40;;;9.30;99.90;;;;;;5024726;28;20218;-45
2023/12/10 07:00:50;;;;;;;22.33;2.92;;;9.40;99.90;;;;;;5022646;28;20639;-39
2023/12/10 07:03:16;;;;;;;22.48;3.70;;;9.30;99.90;;;;;;5024721;28;20200;-37
2023/12/10 07:05:42;;;;;;;27.30;3.85;;;9.40;99.90;;;;;;5055471;28;20195;-40
2023/12/10 07:08:08;;;;;;;23.17;3.65;;;9.40;99.90;;;;;;5023302;28;20200;-38
2023/12/10 07:10:34;;;;;;;21.90;3.80;;;9.40;99.90;;;;;;5024770;28;20199;-40
2023/12/10 07:13:00;;;;;;;26.08;3.30;;;9.40;99.90;;;;;;5024590;28;20223;-38
2023/12/10 07:15:26;;;;;;;22.40;3.53;;;9.30;99.90;;;;;;5023767;28;20243;-40
2023/12/10 07:17:51;;;;;;;21.58;3.60;;;9.30;99.90;;;;;;5021895;28;20192;-39
2023/12/10 07:20:17;;;;;;;26.63;3.85;;;9.40;99.90;;;;;;5022672;28;20192;-41
2023/12/10 07:22:43;;;;;;;18.52;3.22;;;9.40;99.90;;;;;;5023526;28;20188;-41
2023/12/10 07:25:09;;;;;;;14.85;2.33;;;9.40;99.90;;;;;;5022926;28;20636;-39
2023/12/10 07:27:35;;;;;;;12.90;2.33;;;9.40;99.90;;;;;;5022567;28;20192;-40
2023/12/10 07:30:01;;;;;;;20.45;3.45;;;9.40;99.90;;;;;;5021905;28;20644;-43
2023/12/10 07:32:27;;;;;;;14.65;2.97;;;9.40;99.90;;;;;;5022832;28;20771;-41
2023/12/10 07:34:53;;;;;;;20.15;3.13;;;9.40;99.90;;;;;;5022597;28;20191;-43
2023/12/10 07:37:19;;;;;;;17.50;3.00;;;9.40;99.90;;;;;;5022466;28;21106;-42
2023/12/10 07:39:45;;;;;;;18.35;2.30;;;9.40;99.90;;;;;;5023347;28;20188;-44
2023/12/10 07:42:11;;;;;;;18.38;3.05;;;9.40;99.90;;;;;;5020983;28;20568;-41
2023/12/10 07:44:37;;;;;;;16.38;3.03;;;9.50;99.90;;;;;;5023695;28;20191;-41
2023/12/10 07:47:04;;;;;;;9.88;2.33;;;9.50;99.90;;;;;;5022082;28;20530;-45
2023/12/10 07:49:31;;;;;;;15.70;3.00;;;9.50;99.90;;;;;;5023290;28;20184;-39
2023/12/10 07:51:57;;;;;;;20.20;3.10;;;9.50;99.90;;;;;;5021878;28;20247;-41
2023/12/10 07:54:23;;;;;;;12.77;2.83;;;9.50;99.90;;;;;;5021436;28;20223;-41
2023/12/10 07:56:49;;;;;;;18.05;2.70;;;9.50;99.90;;;;;;5021515;28;20192;-38
2023/12/10 07:59:14;;;;;;;14.60;2.45;;;9.50;99.90;;;;;;5022027;28;20199;-39
2023/12/10 08:01:41;;;;;;;9.77;2.25;;;9.50;99.90;;;;;;5018734;28;20633;-42
2023/12/10 08:04:06;;;;;;;11.55;2.38;;;9.50;99.90;;;;;;5022064;28;20180;-44
2023/12/10 08:06:33;;;;;;;15.30;2.60;;;9.50;99.90;;;;;;5022077;28;20183;-39
2023/12/10 08:09:04;;;;;;;15.82;2.83;;;9.50;99.90;;;;;;5021898;28;20220;-36
2023/12/10 08:11:31;;;;;;;14.02;2.78;;;9.40;99.90;;;;;;5022493;28;20270;-40
2023/12/10 08:13:57;;;;;;;18.95;3.05;;;9.40;99.90;;;;;;5021465;28;20219;-43
2023/12/10 08:16:23;;;;;;;13.15;2.15;;;9.40;99.90;;;;;;5021730;28;20600;-42
2023/12/10 08:18:50;;;;;;;18.00;3.22;;;9.40;99.90;;;;;;5022867;28;20239;-46
2023/12/10 08:21:16;;;;;;;7.38;2.38;;;9.40;99.90;;;;;;5037145;28;20188;-41
2023/12/10 08:23:43;;;;;;;13.07;2.33;;;9.40;99.90;;;;;;5021450;28;20202;-44
2023/12/10 08:26:09;;;;;;;10.60;2.28;;;9.40;99.90;;;;;;5022167;28;20196;-38
2023/12/10 08:28:35;;;;;;;9.82;1.98;;;9.40;99.90;;;;;;5021264;28;20281;-40
2023/12/10 08:31:00;;;;;;;12.82;1.92;;;9.40;99.90;;;;;;5021970;28;20694;-44
2023/12/10 08:33:26;;;;;;;9.27;2.28;;;9.40;99.90;;;;;;5022301;28;20224;-46
2023/12/10 08:35:52;;;;;;;9.05;2.03;;;9.50;99.90;;;;;;5020471;28;20218;-37
2023/12/10 08:38:18;;;;;;;15.07;2.83;;;9.40;99.90;;;;;;5022442;28;20192;-39
2023/12/10 08:40:44;;;;;;;14.13;2.67;;;9.40;99.90;;;;;;5022125;28;20196;-40
2023/12/10 08:43:10;;;;;;;12.25;2.30;;;9.40;99.90;;;;;;5022717;28;20202;-42
2023/12/10 08:45:36;;;;;;;17.95;3.10;;;9.40;99.90;;;;;;5021669;28;20230;-43
2023/12/10 08:48:02;;;;;;;20.50;2.95;;;9.40;99.90;;;;;;5022076;28;20211;-38
2023/12/10 08:50:28;;;;;;;8.82;2.20;;;9.40;99.90;;;;;;5022273;28;20188;-47
2023/12/10 08:52:54;;;;;;;17.17;2.47;;;9.40;99.90;;;;;;5004229;28;20219;-40
2023/12/10 08:55:19;;;;;;;16.23;2.80;;;9.40;99.90;;;;;;5021881;28;20200;-39
2023/12/10 08:57:45;;;;;;;10.25;2.08;;;9.30;99.90;;;;;;5020981;28;20269;-40
2023/12/10 09:00:12;;;;;;;16.85;2.70;;;9.40;99.90;;;;;;5019793;28;20188;-42
2023/12/10 09:02:38;;;;;;;16.88;2.78;;;9.30;99.90;;;;;;5021758;28;20191;-42
2023/12/10 09:05:04;;;;;;;20.60;3.38;;;9.30;99.90;;;;;;5021507;28;20203;-38
2023/12/10 09:07:31;;;;;;;20.45;3.17;;;9.30;99.90;;;;;;5021475;28;20215;-42
2023/12/10 09:09:59;;;;;;;19.42;3.42;;;9.30;99.90;;;;;;5021453;28;20596;-45
2023/12/10 09:12:28;;;;;;;19.33;3.78;;;9.30;99.90;;;;;;5020230;28;20262;-40
2023/12/10 09:14:54;;;;;;;27.70;4.00;;;9.30;99.90;;;;;;5019324;28;20215;-43
2023/12/10 09:17:21;;;;;;;20.75;3.38;;;9.30;99.90;;;;;;5020201;28;20192;-41
2023/12/10 09:19:47;;;;;;;31.08;3.70;;;9.40;99.90;;;;;;5020714;28;20593;-38
2023/12/10 09:22:13;;;;;;;23.60;4.15;;;9.40;99.90;;;;;;5024920;28;20184;-43
2023/12/10 09:24:40;;;;;;;25.80;3.90;;;9.40;99.90;;;;;;5021080;28;20291;-41
2023/12/10 09:27:06;;;;;;;24.33;5.10;;;9.40;99.90;;;;;;5020489;28;20192;-40
2023/12/10 09:29:38;;;;;;;24.58;4.72;;;9.30;99.90;;;;;;5020963;28;20538;-41
2023/12/10 09:32:10;;;;;;;32.10;6.10;;;9.30;99.90;;;;;;5018693;28;20235;-38
2023/12/10 09:34:37;;;;;;;29.63;5.00;;;9.40;99.90;;;;;;5019605;28;20242;-40
2023/12/10 09:37:04;;;;;;;30.83;4.75;;;9.30;99.90;;;;;;5019149;28;20559;-37
2023/12/10 09:39:31;;;;;;;32.35;5.10;;;9.30;99.90;;;;;;5019218;28;20180;-41
2023/12/10 09:41:57;;;;;;;23.00;4.28;;;9.30;99.90;;;;;;5021049;28;20562;-42
2023/12/10 09:44:23;;;;;;;26.08;4.65;;;9.30;99.90;;;;;;5021466;28;20200;-43
2023/12/10 09:46:49;;;;;;;25.20;4.53;;;9.30;99.90;;;;;;5019176;28;20199;-41
2023/12/10 09:49:15;;;;;;;23.13;4.07;;;9.30;99.90;;;;;;5017560;28;20192;-38
2023/12/10 09:51:41;;;;;;;22.70;3.60;;;9.30;99.90;;;;;;5020569;28;20219;-47
2023/12/10 09:54:07;;;;;;;22.20;3.08;;;9.30;99.90;;;;;;5020816;28;20331;-42
2023/12/10 09:56:33;;;;;;;17.80;3.30;;;9.30;99.90;;;;;;5019902;28;20184;-41
2023/12/10 09:58:59;;;;;;;20.08;3.95;;;9.40;99.90;;;;;;5020903;28;20188;-39
2023/12/10 10:01:25;;;;;;;27.27;4.60;;;9.40;99.90;;;;;;5021297;28;20201;-42
2023/12/10 10:03:51;;;;;;;17.48;4.75;;;9.40;99.90;;;;;;5021072;28;20270;-46
2023/12/10 10:06:17;;;;;;;26.17;4.60;;;9.40;99.90;;;;;;5018383;28;20258;-46
2023/12/10 10:08:43;;;;;;;17.70;4.05;;;9.40;99.90;;;;;;5020799;28;20674;-42
2023/12/10 10:11:09;;;;;;;25.25;4.70;;;9.40;99.90;;;;;;5020341;28;20196;-40
2023/12/10 10:13:36;;;;;;;20.42;3.92;;;9.40;99.90;;;;;;5020926;28;20219;-42
2023/12/10 10:16:12;;;;;;;28.67;5.10;;;9.40;99.90;;;;;;5035938;28;20200;-42
2023/12/10 10:18:41;;;;;;;18.33;4.18;;;9.40;99.90;;;;;;5052999;28;20220;-40
2023/12/10 10:21:08;;;;;;;22.52;4.00;;;9.40;99.90;;;;;;5020823;28;20211;-43
2023/12/10 10:23:33;;;;;;;23.08;4.97;;;9.40;99.90;;;;;;5019863;28;20188;-43
2023/12/10 10:26:00;;;;;;;21.67;4.60;;;9.40;99.90;;;;;;5019425;28;20192;-39
2023/12/10 10:28:27;;;;;;;17.52;3.78;;;9.40;99.90;;;;;;5020474;28;20188;-39
2023/12/10 10:30:55;;;;;;;13.82;4.03;;;9.40;99.90;;;;;;5020324;28;20188;-37
2023/12/10 10:33:23;;;;;;;27.63;5.32;;;9.40;99.90;;;;;;5020563;28;20214;-40
2023/12/10 10:35:52;;;;;;;20.52;4.00;;;9.40;99.90;;;;;;5020849;28;20227;-47
2023/12/10 10:38:21;;;;;;;24.02;5.25;;;9.40;99.90;;;;;;5020627;28;20274;-42
2023/12/10 10:40:48;;;;;;;20.33;4.18;;;9.30;99.90;;;;;;5019472;28;20196;-36
2023/12/10 10:43:15;;;;;;;22.88;5.03;;;9.30;99.90;;;;;;5020329;28;20188;-45
2023/12/10 10:45:41;;;;;;;34.40;6.57;;;9.30;99.90;;;;;;5021140;28;20703;-43
2023/12/10 10:48:08;;;;;;;32.08;6.38;;;9.30;99.90;;;;;;5018746;28;20211;-37
2023/12/10 10:50:37;;;;;;;30.48;6.18;;;9.30;99.90;;;;;;5020179;28;20251;-36
2023/12/10 10:53:03;;;;;;;35.08;6.15;;;9.30;99.90;;;;;;5019194;28;20257;-40
2023/12/10 10:55:32;;;;;;;25.35;5.13;;;9.30;99.90;;;;;;5020308;28;20188;-42
2023/12/10 10:57:58;;;;;;;35.47;5.85;;;9.30;99.90;;;;;;5020517;28;20184;-43
2023/12/10 11:00:23;;;;;;;26.90;4.90;;;9.40;99.90;;;;;;5019560;28;20195;-37
2023/12/10 11:02:54;;;;;;;30.38;5.82;;;9.40;99.90;;;;;;5020020;28;20656;-39
2023/12/10 11:05:33;;;;;;;36.92;6.50;;;9.40;99.90;;;;;;5018559;28;20257;-41
2023/12/10 11:08:00;;;;;;;38.10;7.03;;;9.50;99.90;;;;;;5020323;28;20195;-39
2023/12/10 11:10:26;;;;;;;35.50;6.35;;;9.50;99.90;;;;;;5018275;28;20302;-44
2023/12/10 11:12:54;;;;;;;40.47;6.78;;;9.50;99.90;;;;;;5018810;28;20567;-44
2023/12/10 11:15:29;;;;;;;45.00;7.80;;;9.50;99.90;;;;;;5018973;28;20226;-54
2023/12/10 11:18:02;;;;;;;35.97;6.38;;;9.50;99.90;;;;;;5019821;28;20207;-43
2023/12/10 11:20:39;;;;;;;35.95;6.78;;;9.50;99.90;;;;;;5019788;28;20651;-44
2023/12/10 11:23:09;;;;;;;39.55;6.75;;;9.50;99.90;;;;;;5021004;28;20269;-39
2023/12/10 11:25:36;;;;;;;36.88;6.30;;;9.50;99.90;;;;;;5024111;28;20195;-40
2023/12/10 11:28:11;;;;;;;34.03;6.32;;;9.50;99.90;;;;;;5023005;28;20220;-38
2023/12/10 11:30:39;;;;;;;35.15;5.82;;;9.50;99.90;;;;;;5023549;28;20192;-39
2023/12/10 11:33:06;;;;;;;32.28;6.47;;;9.50;99.90;;;;;;5023014;28;20223;-42
2023/12/10 11:35:32;;;;;;;33.13;7.25;;;9.50;99.90;;;;;;5023371;28;20192;-40
2023/12/10 11:37:58;;;;;;;53.90;8.05;;;9.50;99.90;;;;;;5022036;28;21226;-44
2023/12/10 11:40:25;;;;;;;42.40;7.57;;;9.50;99.90;;;;;;5055423;28;20278;-41
2023/12/10 11:42:51;;;;;;;39.35;6.88;;;9.50;99.90;;;;;;5023505;28;20267;-45
2023/12/10 11:45:17;;;;;;;46.92;7.10;;;9.60;99.90;;;;;;5023465;28;20708;-40
2023/12/10 11:47:45;;;;;;;41.60;6.75;;;9.60;99.90;;;;;;5022662;28;20216;-41
2023/12/10 11:50:12;;;;;;;32.33;6.28;;;9.70;99.90;;;;;;5021728;28;20656;-43
2023/12/10 11:52:39;;;;;;;27.48;4.45;;;9.70;99.90;;;;;;5022260;28;20211;-42
2023/12/10 11:55:07;;;;;;;28.70;5.20;;;9.70;99.90;;;;;;5023224;28;20361;-44
2023/12/10 11:57:33;;;;;;;39.13;5.93;;;9.70;99.90;;;;;;5054999;28;20203;-42
2023/12/10 12:00:04;;;;;;;44.08;6.40;;;9.70;99.90;;;;;;5022374;28;20191;-41
2023/12/10 12:02:45;;;;;;;41.55;6.22;;;9.70;99.90;;;;;;5022407;28;20636;-39
2023/12/10 12:05:13;;;;;;;34.17;6.93;;;9.70;99.90;;;;;;5022750;28;20180;-40
2023/12/10 12:07:40;;;;;;;33.58;5.93;;;9.70;99.90;;;;;;5022994;28;20501;-40
2023/12/10 12:10:07;;;;;;;38.10;6.80;;;9.70;99.90;;;;;;5022877;28;20230;-41
2023/12/10 12:12:44;;;;;;;43.05;6.90;;;9.70;99.90;;;;;;5021947;28;20239;-41
2023/12/10 12:15:12;;;;;;;36.78;6.28;;;9.70;99.90;;;;;;5022698;28;20258;-43
2023/12/10 12:17:38;;;;;;;39.10;7.32;;;9.70;99.90;;;;;;5022188;28;20195;-38
2023/12/10 12:20:28;;;;;;;35.83;5.45;;;9.70;99.90;;;;;;5022745;28;20180;-43
2023/12/10 12:22:54;;;;;;;42.25;6.85;;;9.70;99.90;;;;;;5020369;28;20211;-44
2023/12/10 12:25:21;;;;;;;41.60;6.90;;;9.70;99.90;;;;;;5021893;28;20196;-40
2023/12/10 12:27:47;;;;;;;42.83;6.32;;;9.70;99.90;;;;;;5022666;28;20228;-40
2023/12/10 12:30:19;;;;;;;37.33;6.20;;;9.70;99.90;;;;;;5021921;28;20626;-40
2023/12/10 12:32:45;;;;;;;45.60;6.18;;;9.70;99.90;;;;;;5021880;28;20249;-39
2023/12/10 12:35:11;;;;;;;34.03;6.40;;;9.70;99.90;;;;;;5020493;28;21094;-40
2023/12/10 12:37:37;;;;;;;44.78;6.70;;;9.80;99.90;;;;;;5022295;28;20601;-43
2023/12/10 12:40:03;;;;;;;44.03;5.95;;;9.80;99.90;;;;;;5022322;28;20224;-46
2023/12/10 12:42:29;;;;;;;42.03;6.82;;;9.80;99.90;;;;;;5021868;28;20196;-39
2023/12/10 12:44:55;;;;;;;39.30;6.63;;;9.90;99.90;;;;;;5022358;28;20203;-39